createdAt,value
2023-03-30T00:05:04.582Z,25.25
2023-03-30T00:10:09.062Z,23.75
2023-03-30T00:15:14.098Z,30.75
2023-03-30T00:20:18.889Z,49.25
2023-03-30T00:25:24.617Z,33.25
2023-03-30T00:30:29.093Z,33.50
2023-03-30T00:35:33.500Z,33.50
2023-03-30T00:40:38.042Z,33.25
2023-03-30T00:45:42.670Z,28.00
2023-03-30T00:50:48.486Z,23.00
2023-03-30T00:55:54.341Z,25.00
2023-03-30T01:01:00.145Z,29.50
2023-03-30T01:06:06.627Z,33.00
2023-03-30T01:11:11.663Z,25.75
2023-03-30T01:16:36.338Z,23.75
2023-03-30T01:22:02.606Z,26.25
2023-03-30T01:27:32.253Z,32.50
2023-03-30T01:32:37.364Z,33.50
2023-03-30T01:37:44.984Z,37.50
2023-03-30T01:42:57.898Z,30.50
2023-03-30T01:48:22.713Z,27.00
2023-03-30T01:53:45.805Z,29.75
2023-03-30T01:58:52.673Z,38.50
2023-03-30T02:03:59.372Z,41.00
2023-03-30T02:09:04.797Z,46.00
2023-03-30T02:14:11.717Z,38.25
2023-03-30T02:19:17.057Z,39.50
2023-03-30T02:24:25.126Z,36.00
2023-03-30T02:29:29.818Z,48.00
2023-03-30T02:34:49.910Z,44.50
2023-03-30T02:40:22.481Z,41.50
2023-03-30T02:45:36.043Z,37.50
2023-03-30T02:50:47.006Z,35.00
2023-03-30T02:56:14.382Z,32.50
2023-03-30T03:01:37.743Z,32.75
2023-03-30T03:06:47.971Z,28.00
2023-03-30T03:11:53.657Z,31.75
2023-03-30T03:17:00.026Z,31.25
2023-03-30T03:22:10.582Z,31.00
2023-03-30T03:27:17.658Z,25.25
2023-03-30T03:33:00.978Z,27.50
2023-03-30T03:38:09.206Z,23.00
2023-03-30T03:43:14.564Z,20.00
2023-03-30T03:48:21.087Z,20.75
2023-03-30T03:53:29.014Z,18.00
2023-03-30T03:58:40.333Z,18.50
2023-03-30T04:03:45.262Z,24.00
2023-03-30T04:08:49.977Z,22.25
2023-03-30T04:14:00.669Z,18.25
2023-03-30T04:19:34.721Z,19.00
2023-03-30T04:24:51.786Z,19.00
2023-03-30T04:30:23.802Z,23.75
2023-03-30T04:35:46.018Z,20.75
2023-03-30T04:41:28.072Z,22.75
2023-03-30T04:46:52.175Z,15.75
2023-03-30T04:52:14.572Z,15.00
2023-03-30T04:57:48.918Z,16.75
2023-03-30T05:03:13.490Z,18.00
2023-03-30T05:08:34.985Z,20.00
2023-03-30T05:14:02.078Z,19.50
2023-03-30T05:19:23.086Z,20.75
2023-03-30T05:24:43.451Z,16.50
2023-03-30T05:30:10.778Z,16.50
2023-03-30T05:35:34.084Z,15.75
2023-03-30T05:40:56.272Z,34.00
2023-03-30T05:46:09.083Z,25.50
2023-03-30T05:51:33.550Z,24.75
2023-03-30T05:57:00.145Z,31.00
2023-03-30T06:02:21.205Z,25.00
2023-03-30T06:07:26.504Z,24.25
2023-03-30T06:12:32.378Z,24.00
2023-03-30T06:17:37.945Z,51.75
2023-03-30T06:22:46.007Z,75.50
2023-03-30T06:27:54.922Z,62.50
2023-03-30T06:32:59.613Z,53.25
2023-03-30T06:38:25.166Z,59.50
2023-03-30T06:43:32.123Z,61.50
2023-03-30T06:48:43.817Z,68.25
2023-03-30T06:54:26.105Z,59.00
2023-03-30T06:59:36.655Z,57.00
2023-03-30T07:04:59.159Z,52.00
2023-03-30T07:10:13.413Z,49.75
2023-03-30T07:15:18.281Z,49.00
2023-03-30T07:20:22.911Z,49.00
2023-03-30T07:25:50.140Z,45.00
2023-03-30T07:31:09.207Z,45.50
2023-03-30T07:36:17.573Z,45.00
2023-03-30T07:41:23.680Z,43.25
2023-03-30T07:46:32.886Z,45.50
2023-03-30T07:51:38.252Z,42.75
2023-03-30T07:56:56.802Z,41.00
2023-03-30T08:02:01.841Z,42.75
2023-03-30T08:07:22.098Z,39.25
2023-03-30T08:12:32.093Z,41.50
2023-03-30T08:17:37.393Z,39.25
2023-03-30T08:22:41.988Z,39.75
2023-03-30T08:27:46.279Z,37.00
2023-03-30T08:32:50.592Z,37.00
2023-03-30T08:37:55.296Z,33.00
2023-03-30T08:43:13.734Z,33.00
2023-03-30T08:48:23.621Z,29.00
2023-03-30T08:53:30.268Z,31.25
2023-03-30T08:58:46.508Z,30.00
2023-03-30T09:04:08.804Z,31.75
2023-03-30T09:09:14.582Z,30.75
2023-03-30T09:14:29.556Z,31.50
2023-03-30T09:19:37.375Z,30.75
2023-03-30T09:24:42.488Z,30.75
2023-03-30T09:29:52.392Z,31.00
2023-03-30T09:34:59.462Z,29.00
